sensor_id;sensor_type;location;lat;lon;timestamp;temperature;humidity
14119;DHT22;7138;49.246;9.100;2022-08-02T00:00:52;20.20;99.90
14119;DHT22;7138;49.246;9.100;2022-08-02T00:03:18;20.20;99.90
14119;DHT22;7138;49.246;9.100;2022-08-02T00:05:44;20.30;99.90
14119;DHT22;7138;49.246;9.100;2022-08-02T00:08:10;20.20;99.90
14119;DHT22;7138;49.246;9.100;2022-08-02T00:10:36;20.10;99.90
14119;DHT22;7138;49.246;9.100;2022-08-02T00:13:02;20.10;99.90
14119;DHT22;7138;49.246;9.100;2022-08-02T00:15:29;20.00;99.90
14119;DHT22;7138;49.246;9.100;2022-08-02T00:17:55;20.00;99.90
14119;DHT22;7138;49.246;9.100;2022-08-02T00:20:21;20.10;99.90
14119;DHT22;7138;49.246;9.100;2022-08-02T00:22:46;20.10;99.90
14119;DHT22;7138;49.246;9.100;2022-08-02T00:25:12;20.10;99.90
14119;DHT22;7138;49.246;9.100;2022-08-02T00:27:38;20.10;99.90
14119;DHT22;7138;49.246;9.100;2022-08-02T00:30:05;20.00;99.90
14119;DHT22;7138;49.246;9.100;2022-08-02T00:32:32;19.90;99.90
14119;DHT22;7138;49.246;9.100;2022-08-02T00:34:58;19.90;99.90
14119;DHT22;7138;49.246;9.100;2022-08-02T00:37:24;19.90;99.90
14119;DHT22;7138;49.246;9.100;2022-08-02T00:39:50;19.80;99.90
14119;DHT22;7138;49.246;9.100;2022-08-02T00:42:16;19.70;99.90
14119;DHT22;7138;49.246;9.100;2022-08-02T00:44:42;19.60;99.90
14119;DHT22;7138;49.246;9.100;2022-08-02T00:47:07;19.60;99.90
14119;DHT22;7138;49.246;9.100;2022-08-02T00:49:35;19.60;99.90
14119;DHT22;7138;49.246;9.100;2022-08-02T00:52:02;19.50;99.90
14119;DHT22;7138;49.246;9.100;2022-08-02T00:54:29;19.40;99.90
14119;DHT22;7138;49.246;9.100;2022-08-02T00:56:54;19.30;99.90
14119;DHT22;7138;49.246;9.100;2022-08-02T00:59:20;19.20;99.90
14119;DHT22;7138;49.246;9.100;2022-08-02T01:01:46;19.10;99.90
14119;DHT22;7138;49.246;9.100;2022-08-02T01:04:13;19.00;99.90
14119;DHT22;7138;49.246;9.100;2022-08-02T01:06:41;19.00;99.90
14119;DHT22;7138;49.246;9.100;2022-08-02T01:09:08;19.00;99.90
14119;DHT22;7138;49.246;9.100;2022-08-02T01:11:34;18.90;99.90
14119;DHT22;7138;49.246;9.100;2022-08-02T01:14:03;18.90;99.90
14119;DHT22;7138;49.246;9.100;2022-08-02T01:16:37;18.90;99.90
14119;DHT22;7138;49.246;9.100;2022-08-02T01:19:18;18.90;99.90
14119;DHT22;7138;49.246;9.100;2022-08-02T01:22:11;18.80;99.90
14119;DHT22;7138;49.246;9.100;2022-08-02T01:25:07;18.80;99.90
14119;DHT22;7138;49.246;9.100;2022-08-02T01:28:02;18.90;99.90
14119;DHT22;7138;49.246;9.100;2022-08-02T01:30:37;18.80;99.90
14119;DHT22;7138;49.246;9.100;2022-08-02T01:33:07;18.80;99.90
14119;DHT22;7138;49.246;9.100;2022-08-02T01:35:40;18.80;99.90
14119;DHT22;7138;49.246;9.100;2022-08-02T01:38:13;18.80;99.90
14119;DHT22;7138;49.246;9.100;2022-08-02T01:40:43;18.70;99.90
14119;DHT22;7138;49.246;9.100;2022-08-02T01:43:13;18.60;99.90
14119;DHT22;7138;49.246;9.100;2022-08-02T01:45:43;18.70;99.90
14119;DHT22;7138;49.246;9.100;2022-08-02T01:48:11;18.60;99.90
14119;DHT22;7138;49.246;9.100;2022-08-02T01:50:40;18.50;99.90
14119;DHT22;7138;49.246;9.100;2022-08-02T01:53:09;18.40;99.90
14119;DHT22;7138;49.246;9.100;2022-08-02T01:55:39;18.40;99.90
14119;DHT22;7138;49.246;9.100;2022-08-02T01:58:09;18.40;99.90
14119;DHT22;7138;49.246;9.100;2022-08-02T02:00:42;18.50;99.90
14119;DHT22;7138;49.246;9.100;2022-08-02T02:03:09;18.50;99.90
14119;DHT22;7138;49.246;9.100;2022-08-02T02:05:38;18.50;99.90
14119;DHT22;7138;49.246;9.100;2022-08-02T02:08:07;18.50;99.90
14119;DHT22;7138;49.246;9.100;2022-08-02T02:10:37;18.60;99.90
14119;DHT22;7138;49.246;9.100;2022-08-02T02:13:07;18.60;99.90
14119;DHT22;7138;49.246;9.100;2022-08-02T02:15:40;18.60;99.90
14119;DHT22;7138;49.246;9.100;2022-08-02T02:18:11;18.60;99.90
14119;DHT22;7138;49.246;9.100;2022-08-02T02:20:43;18.60;99.90
14119;DHT22;7138;49.246;9.100;2022-08-02T02:23:09;18.50;99.90
14119;DHT22;7138;49.246;9.100;2022-08-02T02:25:35;18.50;99.90
14119;DHT22;7138;49.246;9.100;2022-08-02T02:28:07;18.40;99.90
14119;DHT22;7138;49.246;9.100;2022-08-02T02:30:38;18.40;99.90
14119;DHT22;7138;49.246;9.100;2022-08-02T02:33:07;18.30;99.90
14119;DHT22;7138;49.246;9.100;2022-08-02T02:35:36;18.20;99.90
14119;DHT22;7138;49.246;9.100;2022-08-02T02:38:04;18.20;99.90
14119;DHT22;7138;49.246;9.100;2022-08-02T02:40:34;18.10;99.90
14119;DHT22;7138;49.246;9.100;2022-08-02T02:43:03;18.10;99.90
14119;DHT22;7138;49.246;9.100;2022-08-02T02:45:31;18.00;99.90
14119;DHT22;7138;49.246;9.100;2022-08-02T02:48:01;18.10;99.90
14119;DHT22;7138;49.246;9.100;2022-08-02T02:50:29;18.10;99.90
14119;DHT22;7138;49.246;9.100;2022-08-02T02:52:56;18.00;99.90
14119;DHT22;7138;49.246;9.100;2022-08-02T02:55:24;17.90;99.90
14119;DHT22;7138;49.246;9.100;2022-08-02T02:57:51;17.90;99.90
14119;DHT22;7138;49.246;9.100;2022-08-02T03:00:18;17.80;99.90
14119;DHT22;7138;49.246;9.100;2022-08-02T03:03:06;17.90;99.90
14119;DHT22;7138;49.246;9.100;2022-08-02T03:05:34;18.00;99.90
14119;DHT22;7138;49.246;9.100;2022-08-02T03:08:00;18.00;99.90
14119;DHT22;7138;49.246;9.100;2022-08-02T03:10:26;18.00;99.90
14119;DHT22;7138;49.246;9.100;2022-08-02T03:12:52;17.90;99.90
14119;DHT22;7138;49.246;9.100;2022-08-02T03:15:20;17.80;99.90
14119;DHT22;7138;49.246;9.100;2022-08-02T03:17:46;17.80;99.90
14119;DHT22;7138;49.246;9.100;2022-08-02T03:20:15;17.80;99.90
14119;DHT22;7138;49.246;9.100;2022-08-02T03:22:43;17.80;99.90
14119;DHT22;7138;49.246;9.100;2022-08-02T03:25:11;17.90;99.90
14119;DHT22;7138;49.246;9.100;2022-08-02T03:27:38;18.00;99.90
14119;DHT22;7138;49.246;9.100;2022-08-02T03:30:06;18.00;99.90
14119;DHT22;7138;49.246;9.100;2022-08-02T03:32:36;18.00;99.90
14119;DHT22;7138;49.246;9.100;2022-08-02T03:35:05;18.00;99.90
14119;DHT22;7138;49.246;9.100;2022-08-02T03:37:35;17.90;99.90
14119;DHT22;7138;49.246;9.100;2022-08-02T03:40:05;17.90;99.90
14119;DHT22;7138;49.246;9.100;2022-08-02T03:42:33;17.80;99.90
14119;DHT22;7138;49.246;9.100;2022-08-02T03:44:59;17.90;99.90
14119;DHT22;7138;49.246;9.100;2022-08-02T03:47:27;17.80;99.90
14119;DHT22;7138;49.246;9.100;2022-08-02T03:49:54;17.70;99.90
14119;DHT22;7138;49.246;9.100;2022-08-02T03:52:22;17.60;99.90
14119;DHT22;7138;49.246;9.100;2022-08-02T03:54:52;17.50;99.90
14119;DHT22;7138;49.246;9.100;2022-08-02T03:57:18;17.50;99.90
14119;DHT22;7138;49.246;9.100;2022-08-02T03:59:45;17.50;99.90
14119;DHT22;7138;49.246;9.100;2022-08-02T04:02:12;17.70;99.90
14119;DHT22;7138;49.246;9.100;2022-08-02T04:04:38;17.80;99.90
14119;DHT22;7138;49.246;9.100;2022-08-02T04:07:04;17.80;99.90
14119;DHT22;7138;49.246;9.100;2022-08-02T04:09:30;17.70;99.90
14119;DHT22;7138;49.246;9.100;2022-08-02T04:11:58;17.80;99.90
14119;DHT22;7138;49.246;9.100;2022-08-02T04:14:24;17.80;99.90
14119;DHT22;7138;49.246;9.100;2022-08-02T04:16:52;17.90;99.90
14119;DHT22;7138;49.246;9.100;2022-08-02T04:19:26;17.90;99.90
14119;DHT22;7138;49.246;9.100;2022-08-02T04:21:57;17.90;99.90
14119;DHT22;7138;49.246;9.100;2022-08-02T04:24:28;17.90;99.90
14119;DHT22;7138;49.246;9.100;2022-08-02T04:27:00;17.90;99.90
14119;DHT22;7138;49.246;9.100;2022-08-02T04:29:28;17.90;99.90
14119;DHT22;7138;49.246;9.100;2022-08-02T04:31:56;18.00;99.90
14119;DHT22;7138;49.246;9.100;2022-08-02T04:34:24;18.00;99.90
14119;DHT22;7138;49.246;9.100;2022-08-02T04:36:50;18.00;99.90
14119;DHT22;7138;49.246;9.100;2022-08-02T04:39:18;18.00;99.90
14119;DHT22;7138;49.246;9.100;2022-08-02T04:41:47;18.10;99.90
14119;DHT22;7138;49.246;9.100;2022-08-02T04:44:14;18.20;99.90
14119;DHT22;7138;49.246;9.100;2022-08-02T04:46:41;18.20;99.90
14119;DHT22;7138;49.246;9.100;2022-08-02T04:49:08;18.20;99.90
14119;DHT22;7138;49.246;9.100;2022-08-02T04:51:34;18.30;99.90
14119;DHT22;7138;49.246;9.100;2022-08-02T04:54:01;18.40;99.90
14119;DHT22;7138;49.246;9.100;2022-08-02T04:56:27;18.40;99.90
14119;DHT22;7138;49.246;9.100;2022-08-02T04:58:52;18.40;99.90
14119;DHT22;7138;49.246;9.100;2022-08-02T05:01:19;18.50;99.90
14119;DHT22;7138;49.246;9.100;2022-08-02T05:03:45;18.50;99.90
14119;DHT22;7138;49.246;9.100;2022-08-02T05:06:11;18.70;99.90
14119;DHT22;7138;49.246;9.100;2022-08-02T05:08:37;18.90;99.90
14119;DHT22;7138;49.246;9.100;2022-08-02T05:11:03;19.30;99.90
14119;DHT22;7138;49.246;9.100;2022-08-02T05:13:29;19.70;99.90
14119;DHT22;7138;49.246;9.100;2022-08-02T05:15:54;20.10;99.90
14119;DHT22;7138;49.246;9.100;2022-08-02T05:18:23;20.40;99.90
14119;DHT22;7138;49.246;9.100;2022-08-02T05:20:49;20.50;99.90
14119;DHT22;7138;49.246;9.100;2022-08-02T05:23:14;20.30;99.90
14119;DHT22;7138;49.246;9.100;2022-08-02T05:25:40;20.00;99.90
14119;DHT22;7138;49.246;9.100;2022-08-02T05:28:06;19.80;99.90
14119;DHT22;7138;49.246;9.100;2022-08-02T05:30:32;19.70;99.90
14119;DHT22;7138;49.246;9.100;2022-08-02T05:32:58;19.90;99.90
14119;DHT22;7138;49.246;9.100;2022-08-02T05:35:25;20.40;99.90
14119;DHT22;7138;49.246;9.100;2022-08-02T05:37:51;20.60;99.90
14119;DHT22;7138;49.246;9.100;2022-08-02T05:40:18;21.20;99.90
14119;DHT22;7138;49.246;9.100;2022-08-02T05:42:44;22.00;99.90
14119;DHT22;7138;49.246;9.100;2022-08-02T05:45:10;23.20;99.90
14119;DHT22;7138;49.246;9.100;2022-08-02T05:47:37;23.70;99.90
14119;DHT22;7138;49.246;9.100;2022-08-02T05:50:04;24.50;99.90
14119;DHT22;7138;49.246;9.100;2022-08-02T05:52:40;25.00;99.90
14119;DHT22;7138;49.246;9.100;2022-08-02T05:55:11;25.20;99.90
14119;DHT22;7138;49.246;9.100;2022-08-02T05:57:49;25.60;99.90
14119;DHT22;7138;49.246;9.100;2022-08-02T06:00:22;25.70;99.90
14119;DHT22;7138;49.246;9.100;2022-08-02T06:03:09;26.00;99.90
14119;DHT22;7138;49.246;9.100;2022-08-02T06:05:49;26.00;99.90
14119;DHT22;7138;49.246;9.100;2022-08-02T06:08:20;26.40;99.90
14119;DHT22;7138;49.246;9.100;2022-08-02T06:10:55;26.80;99.90
14119;DHT22;7138;49.246;9.100;2022-08-02T06:13:26;26.50;99.90
14119;DHT22;7138;49.246;9.100;2022-08-02T06:15:53;26.70;99.90
14119;DHT22;7138;49.246;9.100;2022-08-02T06:18:25;26.60;99.90
14119;DHT22;7138;49.246;9.100;2022-08-02T06:20:54;26.60;99.90
14119;DHT22;7138;49.246;9.100;2022-08-02T06:23:25;26.60;99.90
14119;DHT22;7138;49.246;9.100;2022-08-02T06:25:53;26.70;99.90
14119;DHT22;7138;49.246;9.100;2022-08-02T06:28:21;26.60;99.90
14119;DHT22;7138;49.246;9.100;2022-08-02T06:30:47;27.10;99.90
14119;DHT22;7138;49.246;9.100;2022-08-02T06:33:14;27.10;99.90
14119;DHT22;7138;49.246;9.100;2022-08-02T06:35:43;27.40;99.90
14119;DHT22;7138;49.246;9.100;2022-08-02T06:38:16;27.40;99.90
14119;DHT22;7138;49.246;9.100;2022-08-02T06:40:55;27.30;99.90
14119;DHT22;7138;49.246;9.100;2022-08-02T06:43:30;27.30;99.90
14119;DHT22;7138;49.246;9.100;2022-08-02T06:46:02;27.00;99.90
14119;DHT22;7138;49.246;9.100;2022-08-02T06:48:29;26.70;99.90
14119;DHT22;7138;49.246;9.100;2022-08-02T06:50:56;27.40;99.90
14119;DHT22;7138;49.246;9.100;2022-08-02T06:53:22;27.40;99.90
14119;DHT22;7138;49.246;9.100;2022-08-02T06:55:49;27.20;99.90
14119;DHT22;7138;49.246;9.100;2022-08-02T06:58:14;26.80;99.90
14119;DHT22;7138;49.246;9.100;2022-08-02T07:00:41;27.00;99.90
14119;DHT22;7138;49.246;9.100;2022-08-02T07:03:07;27.40;99.90
14119;DHT22;7138;49.246;9.100;2022-08-02T07:05:33;27.10;99.90
14119;DHT22;7138;49.246;9.100;2022-08-02T07:08:00;27.10;99.90
14119;DHT22;7138;49.246;9.100;2022-08-02T07:10:27;26.40;99.90
14119;DHT22;7138;49.246;9.100;2022-08-02T07:12:54;26.80;99.90
14119;DHT22;7138;49.246;9.100;2022-08-02T07:15:20;26.60;99.90
14119;DHT22;7138;49.246;9.100;2022-08-02T07:17:46;26.70;99.90
14119;DHT22;7138;49.246;9.100;2022-08-02T07:20:12;26.50;99.90
14119;DHT22;7138;49.246;9.100;2022-08-02T07:22:40;25.90;99.90
14119;DHT22;7138;49.246;9.100;2022-08-02T07:25:07;25.70;99.90
14119;DHT22;7138;49.246;9.100;2022-08-02T07:27:34;26.00;99.90
14119;DHT22;7138;49.246;9.100;2022-08-02T07:30:01;26.20;99.90
14119;DHT22;7138;49.246;9.100;2022-08-02T07:32:30;26.20;99.90
14119;DHT22;7138;49.246;9.100;2022-08-02T07:34:57;26.50;99.90
14119;DHT22;7138;49.246;9.100;2022-08-02T07:37:27;26.60;99.90
14119;DHT22;7138;49.246;9.100;2022-08-02T07:39:54;27.00;99.90
14119;DHT22;7138;49.246;9.100;2022-08-02T07:42:20;27.20;99.90
14119;DHT22;7138;49.246;9.100;2022-08-02T07:44:46;27.30;99.90
14119;DHT22;7138;49.246;9.100;2022-08-02T07:47:14;27.00;99.90
14119;DHT22;7138;49.246;9.100;2022-08-02T07:49:39;27.40;99.90
14119;DHT22;7138;49.246;9.100;2022-08-02T07:52:05;27.40;99.90
14119;DHT22;7138;49.246;9.100;2022-08-02T07:54:31;27.40;99.90
14119;DHT22;7138;49.246;9.100;2022-08-02T07:56:57;27.30;99.90
14119;DHT22;7138;49.246;9.100;2022-08-02T07:59:23;27.00;99.90
14119;DHT22;7138;49.246;9.100;2022-08-02T08:01:49;27.40;99.90
14119;DHT22;7138;49.246;9.100;2022-08-02T08:04:18;27.40;99.90
14119;DHT22;7138;49.246;9.100;2022-08-02T08:06:44;27.50;99.90
14119;DHT22;7138;49.246;9.100;2022-08-02T08:09:16;27.50;99.90
14119;DHT22;7138;49.246;9.100;2022-08-02T08:11:42;27.90;99.90
14119;DHT22;7138;49.246;9.100;2022-08-02T08:14:08;28.10;99.90
14119;DHT22;7138;49.246;9.100;2022-08-02T08:16:34;27.80;99.90
14119;DHT22;7138;49.246;9.100;2022-08-02T08:19:00;27.40;99.90
14119;DHT22;7138;49.246;9.100;2022-08-02T08:21:28;27.50;99.90
14119;DHT22;7138;49.246;9.100;2022-08-02T08:23:54;27.30;99.90
14119;DHT22;7138;49.246;9.100;2022-08-02T08:26:20;27.70;99.90
14119;DHT22;7138;49.246;9.100;2022-08-02T08:28:46;28.10;99.90
14119;DHT22;7138;49.246;9.100;2022-08-02T08:31:12;27.70;99.90
14119;DHT22;7138;49.246;9.100;2022-08-02T08:33:38;27.70;99.90
14119;DHT22;7138;49.246;9.100;2022-08-02T08:36:04;27.70;99.90
14119;DHT22;7138;49.246;9.100;2022-08-02T08:38:31;27.90;99.90
14119;DHT22;7138;49.246;9.100;2022-08-02T08:40:57;28.20;99.90
14119;DHT22;7138;49.246;9.100;2022-08-02T08:43:23;28.40;99.90
14119;DHT22;7138;49.246;9.100;2022-08-02T08:45:49;28.00;99.90
14119;DHT22;7138;49.246;9.100;2022-08-02T08:48:16;28.20;99.90
14119;DHT22;7138;49.246;9.100;2022-08-02T08:50:46;28.70;99.90
14119;DHT22;7138;49.246;9.100;2022-08-02T08:53:18;28.30;99.90
14119;DHT22;7138;49.246;9.100;2022-08-02T08:55:47;28.20;99.90
14119;DHT22;7138;49.246;9.100;2022-08-02T08:58:17;28.40;99.90
14119;DHT22;7138;49.246;9.100;2022-08-02T09:00:43;28.60;99.90
14119;DHT22;7138;49.246;9.100;2022-08-02T09:03:09;28.90;99.90
14119;DHT22;7138;49.246;9.100;2022-08-02T09:05:36;28.90;99.90
14119;DHT22;7138;49.246;9.100;2022-08-02T09:08:03;28.80;99.90
14119;DHT22;7138;49.246;9.100;2022-08-02T09:10:34;28.50;99.90
14119;DHT22;7138;49.246;9.100;2022-08-02T09:13:09;29.20;99.90
14119;DHT22;7138;49.246;9.100;2022-08-02T09:15:39;28.40;99.90
14119;DHT22;7138;49.246;9.100;2022-08-02T09:18:06;28.70;99.90
14119;DHT22;7138;49.246;9.100;2022-08-02T09:20:34;29.10;99.90
14119;DHT22;7138;49.246;9.100;2022-08-02T09:23:15;29.30;99.90
14119;DHT22;7138;49.246;9.100;2022-08-02T09:25:54;29.60;99.90
14119;DHT22;7138;49.246;9.100;2022-08-02T09:28:25;29.60;99.90
14119;DHT22;7138;49.246;9.100;2022-08-02T09:30:52;29.90;99.90
14119;DHT22;7138;49.246;9.100;2022-08-02T09:33:24;29.50;99.90
14119;DHT22;7138;49.246;9.100;2022-08-02T09:35:58;28.80;99.90
14119;DHT22;7138;49.246;9.100;2022-08-02T09:38:25;29.30;99.90
14119;DHT22;7138;49.246;9.100;2022-08-02T09:40:51;29.80;99.90
14119;DHT22;7138;49.246;9.100;2022-08-02T09:43:17;29.60;99.90
14119;DHT22;7138;49.246;9.100;2022-08-02T09:45:46;29.80;99.90
14119;DHT22;7138;49.246;9.100;2022-08-02T09:48:12;30.10;99.90
14119;DHT22;7138;49.246;9.100;2022-08-02T09:50:39;30.30;99.90
14119;DHT22;7138;49.246;9.100;2022-08-02T09:53:10;30.40;99.90
14119;DHT22;7138;49.246;9.100;2022-08-02T09:55:41;30.30;99.90
14119;DHT22;7138;49.246;9.100;2022-08-02T09:58:17;30.50;99.90
14119;DHT22;7138;49.246;9.100;2022-08-02T10:00:53;30.60;99.80
14119;DHT22;7138;49.246;9.100;2022-08-02T10:03:20;31.00;99.90
14119;DHT22;7138;49.246;9.100;2022-08-02T10:05:48;31.30;99.10
14119;DHT22;7138;49.246;9.100;2022-08-02T10:08:18;30.60;99.90
14119;DHT22;7138;49.246;9.100;2022-08-02T10:10:46;30.50;99.40
14119;DHT22;7138;49.246;9.100;2022-08-02T10:13:13;29.80;99.40
14119;DHT22;7138;49.246;9.100;2022-08-02T10:15:40;30.40;98.60
14119;DHT22;7138;49.246;9.100;2022-08-02T10:18:08;30.90;98.40
14119;DHT22;7138;49.246;9.100;2022-08-02T10:20:39;31.20;98.40
14119;DHT22;7138;49.246;9.100;2022-08-02T10:23:10;31.40;98.70
14119;DHT22;7138;49.246;9.100;2022-08-02T10:25:39;31.80;98.10
14119;DHT22;7138;49.246;9.100;2022-08-02T10:28:06;32.00;98.50
14119;DHT22;7138;49.246;9.100;2022-08-02T10:30:35;31.30;97.00
14119;DHT22;7138;49.246;9.100;2022-08-02T10:33:05;31.30;97.40
14119;DHT22;7138;49.246;9.100;2022-08-02T10:35:37;31.20;98.20
14119;DHT22;7138;49.246;9.100;2022-08-02T10:38:07;31.90;98.00
14119;DHT22;7138;49.246;9.100;2022-08-02T10:40:42;32.20;96.10
14119;DHT22;7138;49.246;9.100;2022-08-02T10:43:10;32.40;97.60
14119;DHT22;7138;49.246;9.100;2022-08-02T10:45:38;32.50;96.60
14119;DHT22;7138;49.246;9.100;2022-08-02T10:48:08;33.00;95.10
14119;DHT22;7138;49.246;9.100;2022-08-02T10:50:52;32.50;96.30
14119;DHT22;7138;49.246;9.100;2022-08-02T10:53:20;32.50;95.00
14119;DHT22;7138;49.246;9.100;2022-08-02T10:55:50;32.50;95.70
14119;DHT22;7138;49.246;9.100;2022-08-02T10:58:18;32.50;94.50
14119;DHT22;7138;49.246;9.100;2022-08-02T11:00:46;32.10;94.50
14119;DHT22;7138;49.246;9.100;2022-08-02T11:03:38;31.80;95.30
14119;DHT22;7138;49.246;9.100;2022-08-02T11:06:07;32.10;94.80
14119;DHT22;7138;49.246;9.100;2022-08-02T11:08:35;31.60;93.50
14119;DHT22;7138;49.246;9.100;2022-08-02T11:11:15;30.90;94.40
14119;DHT22;7138;49.246;9.100;2022-08-02T11:14:02;30.70;96.20
14119;DHT22;7138;49.246;9.100;2022-08-02T11:17:10;30.70;94.90
14119;DHT22;7138;49.246;9.100;2022-08-02T11:20:14;29.50;95.90
14119;DHT22;7138;49.246;9.100;2022-08-02T11:22:42;30.00;97.90
14119;DHT22;7138;49.246;9.100;2022-08-02T11:25:29;31.00;95.60
14119;DHT22;7138;49.246;9.100;2022-08-02T11:28:07;30.70;94.70
14119;DHT22;7138;49.246;9.100;2022-08-02T11:30:35;30.40;94.80
14119;DHT22;7138;49.246;9.100;2022-08-02T11:33:02;30.20;95.60
14119;DHT22;7138;49.246;9.100;2022-08-02T11:35:38;29.90;94.90
14119;DHT22;7138;49.246;9.100;2022-08-02T11:38:15;29.30;95.40
14119;DHT22;7138;49.246;9.100;2022-08-02T11:40:43;29.00;95.80
14119;DHT22;7138;49.246;9.100;2022-08-02T11:43:17;28.80;95.80
14119;DHT22;7138;49.246;9.100;2022-08-02T11:45:44;28.40;96.50
14119;DHT22;7138;49.246;9.100;2022-08-02T11:48:11;28.40;96.70
14119;DHT22;7138;49.246;9.100;2022-08-02T11:50:38;28.60;97.20
14119;DHT22;7138;49.246;9.100;2022-08-02T11:53:12;28.40;97.10
14119;DHT22;7138;49.246;9.100;2022-08-02T11:55:39;28.60;97.40
14119;DHT22;7138;49.246;9.100;2022-08-02T11:58:05;28.60;96.80
14119;DHT22;7138;49.246;9.100;2022-08-02T12:00:34;28.80;97.40
14119;DHT22;7138;49.246;9.100;2022-08-02T12:03:00;28.80;96.30
14119;DHT22;7138;49.246;9.100;2022-08-02T12:05:26;28.70;96.60
14119;DHT22;7138;49.246;9.100;2022-08-02T12:07:53;28.50;97.10
14119;DHT22;7138;49.246;9.100;2022-08-02T12:10:21;28.60;96.90
14119;DHT22;7138;49.246;9.100;2022-08-02T12:12:49;28.80;96.80
14119;DHT22;7138;49.246;9.100;2022-08-02T12:15:30;28.80;96.30
14119;DHT22;7138;49.246;9.100;2022-08-02T12:17:57;28.50;96.30
14119;DHT22;7138;49.246;9.100;2022-08-02T12:20:42;28.40;96.60
14119;DHT22;7138;49.246;9.100;2022-08-02T12:23:10;28.60;96.70
14119;DHT22;7138;49.246;9.100;2022-08-02T12:25:36;28.60;97.10
14119;DHT22;7138;49.246;9.100;2022-08-02T12:28:12;28.30;97.90
14119;DHT22;7138;49.246;9.100;2022-08-02T12:30:50;28.30;97.00
14119;DHT22;7138;49.246;9.100;2022-08-02T12:33:18;29.10;95.20
14119;DHT22;7138;49.246;9.100;2022-08-02T12:35:45;29.60;95.80
14119;DHT22;7138;49.246;9.100;2022-08-02T12:38:12;30.20;94.60
14119;DHT22;7138;49.246;9.100;2022-08-02T12:40:38;30.50;93.80
14119;DHT22;7138;49.246;9.100;2022-08-02T12:43:06;30.30;93.40
14119;DHT22;7138;49.246;9.100;2022-08-02T12:45:46;30.60;93.90
14119;DHT22;7138;49.246;9.100;2022-08-02T12:48:14;30.90;93.10
14119;DHT22;7138;49.246;9.100;2022-08-02T12:50:40;31.40;93.00
14119;DHT22;7138;49.246;9.100;2022-08-02T12:53:08;31.60;92.20
14119;DHT22;7138;49.246;9.100;2022-08-02T12:55:45;31.40;90.90
14119;DHT22;7138;49.246;9.100;2022-08-02T12:58:12;31.80;91.80
14119;DHT22;7138;49.246;9.100;2022-08-02T13:00:39;31.90;91.00
14119;DHT22;7138;49.246;9.100;2022-08-02T13:03:06;32.10;90.80
14119;DHT22;7138;49.246;9.100;2022-08-02T13:05:35;32.00;90.00
14119;DHT22;7138;49.246;9.100;2022-08-02T13:08:02;31.80;90.80
14119;DHT22;7138;49.246;9.100;2022-08-02T13:10:29;31.80;90.90
14119;DHT22;7138;49.246;9.100;2022-08-02T13:12:56;32.10;91.90
14119;DHT22;7138;49.246;9.100;2022-08-02T13:15:22;31.90;91.40
14119;DHT22;7138;49.246;9.100;2022-08-02T13:17:48;31.70;91.00
14119;DHT22;7138;49.246;9.100;2022-08-02T13:20:14;31.60;91.80
14119;DHT22;7138;49.246;9.100;2022-08-02T13:22:40;31.40;90.90
14119;DHT22;7138;49.246;9.100;2022-08-02T13:25:07;30.70;91.00
14119;DHT22;7138;49.246;9.100;2022-08-02T13:27:34;30.10;91.30
14119;DHT22;7138;49.246;9.100;2022-08-02T13:30:03;30.10;90.90
14119;DHT22;7138;49.246;9.100;2022-08-02T13:32:30;30.40;91.10
14119;DHT22;7138;49.246;9.100;2022-08-02T13:34:57;30.40;90.20
14119;DHT22;7138;49.246;9.100;2022-08-02T13:37:23;30.70;91.70
14119;DHT22;7138;49.246;9.100;2022-08-02T13:39:49;31.00;91.30
14119;DHT22;7138;49.246;9.100;2022-08-02T13:42:16;31.30;91.40
14119;DHT22;7138;49.246;9.100;2022-08-02T13:44:42;31.20;90.40
14119;DHT22;7138;49.246;9.100;2022-08-02T13:47:09;31.30;89.30
14119;DHT22;7138;49.246;9.100;2022-08-02T13:49:36;31.10;90.40
14119;DHT22;7138;49.246;9.100;2022-08-02T13:52:03;31.10;90.60
14119;DHT22;7138;49.246;9.100;2022-08-02T13:54:29;31.00;90.10
14119;DHT22;7138;49.246;9.100;2022-08-02T13:56:55;30.30;88.50
14119;DHT22;7138;49.246;9.100;2022-08-02T13:59:21;30.30;90.10
14119;DHT22;7138;49.246;9.100;2022-08-02T14:01:46;30.40;87.80
14119;DHT22;7138;49.246;9.100;2022-08-02T14:04:14;30.80;86.80
14119;DHT22;7138;49.246;9.100;2022-08-02T14:06:39;31.20;85.90
14119;DHT22;7138;49.246;9.100;2022-08-02T14:09:05;30.80;86.90
14119;DHT22;7138;49.246;9.100;2022-08-02T14:11:31;31.30;83.60
14119;DHT22;7138;49.246;9.100;2022-08-02T14:13:58;31.20;85.80
14119;DHT22;7138;49.246;9.100;2022-08-02T14:16:24;31.80;86.10
14119;DHT22;7138;49.246;9.100;2022-08-02T14:18:49;32.10;83.10
14119;DHT22;7138;49.246;9.100;2022-08-02T14:21:17;32.10;83.30
14119;DHT22;7138;49.246;9.100;2022-08-02T14:23:42;31.90;80.70
14119;DHT22;7138;49.246;9.100;2022-08-02T14:26:08;31.80;80.40
14119;DHT22;7138;49.246;9.100;2022-08-02T14:28:34;31.80;82.70
14119;DHT22;7138;49.246;9.100;2022-08-02T14:31:00;31.80;85.30
14119;DHT22;7138;49.246;9.100;2022-08-02T14:33:26;31.90;85.90
14119;DHT22;7138;49.246;9.100;2022-08-02T14:35:52;31.60;86.10
14119;DHT22;7138;49.246;9.100;2022-08-02T14:38:19;31.70;84.90
14119;DHT22;7138;49.246;9.100;2022-08-02T14:40:45;31.30;82.90
14119;DHT22;7138;49.246;9.100;2022-08-02T14:43:11;30.80;81.20
14119;DHT22;7138;49.246;9.100;2022-08-02T14:45:57;30.70;82.70
14119;DHT22;7138;49.246;9.100;2022-08-02T14:48:23;30.80;84.60
14119;DHT22;7138;49.246;9.100;2022-08-02T14:50:48;31.00;85.20
14119;DHT22;7138;49.246;9.100;2022-08-02T14:53:14;30.90;81.80
14119;DHT22;7138;49.246;9.100;2022-08-02T14:55:42;30.70;81.00
14119;DHT22;7138;49.246;9.100;2022-08-02T14:58:08;30.80;80.00
14119;DHT22;7138;49.246;9.100;2022-08-02T15:00:34;30.60;81.60
14119;DHT22;7138;49.246;9.100;2022-08-02T15:03:00;30.90;81.00
14119;DHT22;7138;49.246;9.100;2022-08-02T15:05:26;30.90;82.00
14119;DHT22;7138;49.246;9.100;2022-08-02T15:07:52;31.30;83.10
14119;DHT22;7138;49.246;9.100;2022-08-02T15:10:17;31.40;83.50
14119;DHT22;7138;49.246;9.100;2022-08-02T15:12:45;31.40;79.40
14119;DHT22;7138;49.246;9.100;2022-08-02T15:15:10;31.40;81.10
14119;DHT22;7138;49.246;9.100;2022-08-02T15:17:36;31.60;82.30
14119;DHT22;7138;49.246;9.100;2022-08-02T15:20:03;31.60;81.50
14119;DHT22;7138;49.246;9.100;2022-08-02T15:22:29;31.70;82.50
14119;DHT22;7138;49.246;9.100;2022-08-02T15:24:55;31.60;81.80
14119;DHT22;7138;49.246;9.100;2022-08-02T15:27:22;31.50;79.80
14119;DHT22;7138;49.246;9.100;2022-08-02T15:29:49;31.50;79.90
14119;DHT22;7138;49.246;9.100;2022-08-02T15:32:16;31.40;80.60
14119;DHT22;7138;49.246;9.100;2022-08-02T15:34:44;31.50;81.20
14119;DHT22;7138;49.246;9.100;2022-08-02T15:37:10;31.70;81.50
14119;DHT22;7138;49.246;9.100;2022-08-02T15:39:36;31.70;79.70
14119;DHT22;7138;49.246;9.100;2022-08-02T15:42:03;31.00;81.50
14119;DHT22;7138;49.246;9.100;2022-08-02T15:44:29;31.10;79.50
14119;DHT22;7138;49.246;9.100;2022-08-02T15:46:56;31.10;80.90
14119;DHT22;7138;49.246;9.100;2022-08-02T15:49:23;31.10;80.90
14119;DHT22;7138;49.246;9.100;2022-08-02T15:51:49;31.20;82.10
14119;DHT22;7138;49.246;9.100;2022-08-02T15:54:15;31.10;78.90